Time;durP1;ratioP1;P1;durP2;ratioP2;P2;SDS_P1;SDS_P2;PMS_P1;PMS_P2;Temp;Humidity;BMP_temperature;BMP_pressure;BME280_temperature;BME280_humidity;BME280_pressure;Samples;Min_cycle;Max_cycle;Signal;HPM_P1;HPM_P2
2022/04/19 00:01:54;;;;;;;10.73;6.97;;;;;;;;;;5022299;28;20182;-66
2022/04/19 00:04:19;;;;;;;11.37;7.03;;;;;;;;;;5024777;28;20189;-65
2022/04/19 00:06:45;;;;;;;12.37;6.50;;;;;;;;;;5019508;28;20293;-65
2022/04/19 00:09:11;;;;;;;9.77;5.77;;;;;;;;;;5016386;28;20762;-65
2022/04/19 00:11:36;;;;;;;11.23;6.17;;;;;;;;;;5019766;28;20230;-65
2022/04/19 00:14:02;;;;;;;11.93;6.17;;;;;;;;;;5023374;28;20193;-66
2022/04/19 00:16:27;;;;;;;9.80;5.80;;;;;;;;;;5025262;28;20267;-66
2022/04/19 00:18:52;;;;;;;11.67;6.13;;;;;;;;;;5026446;28;20268;-65
2022/04/19 00:21:19;;;;;;;10.30;5.90;;;;;;;;;;5020481;28;20194;-66
2022/04/19 00:23:46;;;;;;;8.53;5.90;;;;;;;;;;5025470;28;20182;-66
2022/04/19 00:26:11;;;;;;;12.07;6.47;;;;;;;;;;5024031;28;20226;-66
2022/04/19 00:28:37;;;;;;;10.57;6.43;;;;;;;;;;5019631;28;20248;-65
2022/04/19 00:31:04;;;;;;;11.67;6.60;;;;;;;;;;5027180;28;20733;-66
2022/04/19 00:33:30;;;;;;;11.20;6.47;;;;;;;;;;5018280;28;20221;-66
2022/04/19 00:35:55;;;;;;;11.00;6.00;;;;;;;;;;5018089;28;20229;-64
2022/04/19 00:38:22;;;;;;;14.07;6.87;;;;;;;;;;5026592;28;20221;-64
2022/04/19 00:40:48;;;;;;;11.67;6.47;;;;;;;;;;5018936;28;20586;-64
2022/04/19 00:43:16;;;;;;;9.90;6.10;;;;;;;;;;5025561;28;20186;-64
2022/04/19 00:45:41;;;;;;;12.17;6.93;;;;;;;;;;5022454;28;20237;-65
2022/04/19 00:48:07;;;;;;;10.20;6.17;;;;;;;;;;5022684;28;20220;-64
2022/04/19 00:50:32;;;;;;;9.90;6.43;;;;;;;;;;5024745;28;20186;-64
2022/04/19 00:52:58;;;;;;;9.50;6.73;;;;;;;;;;5026007;28;20182;-64
2022/04/19 00:55:24;;;;;;;12.97;7.33;;;;;;;;;;5026767;28;20178;-64
2022/04/19 00:57:50;;;;;;;9.20;6.23;;;;;;;;;;5019443;28;20240;-64
2022/04/19 01:00:16;;;;;;;12.13;6.80;;;;;;;;;;5025520;28;20194;-65
2022/04/19 01:02:42;;;;;;;12.20;6.90;;;;;;;;;;5021723;28;20190;-64
2022/04/19 01:05:08;;;;;;;11.80;6.07;;;;;;;;;;5022864;28;20205;-65
2022/04/19 01:07:34;;;;;;;11.23;6.40;;;;;;;;;;5020281;28;20206;-64
2022/04/19 01:10:00;;;;;;;13.10;6.57;;;;;;;;;;5022236;28;20195;-64
2022/04/19 01:15:11;;;;;;;13.33;6.43;;;;;;;;;;5026843;28;20264;-65
2022/04/19 01:17:41;;;;;;;10.77;6.63;;;;;;;;;;5023718;28;20189;-64
2022/04/19 01:20:09;;;;;;;11.27;6.40;;;;;;;;;;5021005;28;20217;-65
2022/04/19 01:22:38;;;;;;;12.10;6.80;;;;;;;;;;5026041;28;20675;-64
2022/04/19 01:25:04;;;;;;;12.77;7.37;;;;;;;;;;5027956;28;20182;-64
2022/04/19 01:27:30;;;;;;;12.93;6.77;;;;;;;;;;5019136;28;20299;-64
2022/04/19 01:30:00;;;;;;;12.83;7.23;;;;;;;;;;5026217;28;20401;-64
2022/04/19 01:32:27;;;;;;;11.77;7.80;;;;;;;;;;5010644;28;20282;-64
2022/04/19 01:35:09;;;;;;;10.40;6.80;;;;;;;;;;5024212;28;20186;-65
2022/04/19 01:37:38;;;;;;;11.37;7.00;;;;;;;;;;5021360;28;20244;-65
2022/04/19 01:40:17;;;;;;;11.70;7.20;;;;;;;;;;5026730;28;20178;-65
2022/04/19 01:42:58;;;;;;;11.70;7.47;;;;;;;;;;5026149;28;20264;-64
2022/04/19 01:45:25;;;;;;;13.43;7.40;;;;;;;;;;5020219;28;20290;-65
2022/04/19 01:47:52;;;;;;;11.77;7.57;;;;;;;;;;5016098;28;20277;-65
2022/04/19 01:50:19;;;;;;;10.77;7.13;;;;;;;;;;5024739;28;20190;-65
2022/04/19 01:52:46;;;;;;;12.53;7.33;;;;;;;;;;5020846;28;20205;-65
2022/04/19 01:55:14;;;;;;;13.23;7.40;;;;;;;;;;5023169;28;20757;-65
2022/04/19 01:57:43;;;;;;;11.57;7.07;;;;;;;;;;5023243;28;20281;-65
2022/04/19 02:00:09;;;;;;;12.90;7.87;;;;;;;;;;5021688;28;20182;-65
2022/04/19 02:02:34;;;;;;;11.60;7.20;;;;;;;;;;5021127;28;20405;-65
2022/04/19 02:05:00;;;;;;;14.67;7.67;;;;;;;;;;5017738;28;20186;-65
2022/04/19 02:07:25;;;;;;;12.90;7.30;;;;;;;;;;5020205;28;20186;-65
2022/04/19 02:09:51;;;;;;;10.97;7.37;;;;;;;;;;5022342;28;20634;-65
2022/04/19 02:12:16;;;;;;;10.90;7.30;;;;;;;;;;5016555;28;20913;-65
2022/04/19 02:14:42;;;;;;;13.23;7.40;;;;;;;;;;5022120;28;20189;-64
2022/04/19 02:17:09;;;;;;;13.43;7.90;;;;;;;;;;5024720;28;20281;-65
2022/04/19 02:19:35;;;;;;;11.70;7.40;;;;;;;;;;5021529;28;20186;-65
2022/04/19 02:22:00;;;;;;;10.23;7.53;;;;;;;;;;5021568;28;20190;-64
2022/04/19 02:24:25;;;;;;;12.17;8.00;;;;;;;;;;5024844;28;20243;-64
2022/04/19 02:26:51;;;;;;;13.33;7.50;;;;;;;;;;5014979;28;20201;-65
2022/04/19 02:29:16;;;;;;;13.10;7.70;;;;;;;;;;5026650;28;20197;-65
2022/04/19 02:31:41;;;;;;;10.40;7.20;;;;;;;;;;5026052;28;20603;-65
2022/04/19 02:34:07;;;;;;;14.07;8.10;;;;;;;;;;5028527;28;20193;-64
2022/04/19 02:36:32;;;;;;;13.97;7.97;;;;;;;;;;5028788;28;20190;-64
2022/04/19 02:38:59;;;;;;;15.50;7.67;;;;;;;;;;5025734;28;20178;-65
2022/04/19 02:41:25;;;;;;;13.37;7.33;;;;;;;;;;5025965;28;20182;-65
2022/04/19 02:43:50;;;;;;;13.40;7.87;;;;;;;;;;5020618;28;20264;-65
2022/04/19 02:46:16;;;;;;;13.77;7.63;;;;;;;;;;5017366;28;20289;-65
2022/04/19 02:48:41;;;;;;;14.87;7.90;;;;;;;;;;5022553;28;20203;-65
2022/04/19 02:51:06;;;;;;;14.73;8.03;;;;;;;;;;5026324;28;20179;-65
2022/04/19 02:53:36;;;;;;;14.27;8.27;;;;;;;;;;5037432;28;20529;-65
2022/04/19 02:56:03;;;;;;;13.27;8.63;;;;;;;;;;5014100;28;20444;-65
2022/04/19 02:58:29;;;;;;;13.77;7.97;;;;;;;;;;5019926;28;20232;-65
2022/04/19 03:00:55;;;;;;;17.27;8.30;;;;;;;;;;5021128;28;20182;-65
2022/04/19 03:03:20;;;;;;;12.80;8.23;;;;;;;;;;5019607;28;20197;-65
2022/04/19 03:05:47;;;;;;;13.63;7.97;;;;;;;;;;5027532;28;20543;-65
2022/04/19 03:08:13;;;;;;;12.07;8.23;;;;;;;;;;5021604;28;20186;-65
2022/04/19 03:10:38;;;;;;;16.20;8.63;;;;;;;;;;5027697;28;20247;-65
2022/04/19 03:13:03;;;;;;;14.77;7.67;;;;;;;;;;5027830;28;20229;-65
2022/04/19 03:15:29;;;;;;;14.20;7.97;;;;;;;;;;5027358;28;20564;-64
2022/04/19 03:17:54;;;;;;;16.27;8.23;;;;;;;;;;5023926;28;20189;-65
2022/04/19 03:20:20;;;;;;;14.67;8.33;;;;;;;;;;5027004;28;20189;-66
2022/04/19 03:28:13;;;;;;;13.67;8.50;;;;;;;;;;5020516;28;20196;-65
2022/04/19 03:30:39;;;;;;;17.50;8.83;;;;;;;;;;5025384;28;20294;-65
2022/04/19 03:33:04;;;;;;;20.23;8.50;;;;;;;;;;5015964;28;20190;-65
2022/04/19 03:35:30;;;;;;;14.57;8.60;;;;;;;;;;5027230;28;20624;-65
2022/04/19 03:37:56;;;;;;;13.60;8.87;;;;;;;;;;5024420;28;20215;-65
2022/04/19 03:40:21;;;;;;;14.03;9.03;;;;;;;;;;5028822;28;20182;-65
2022/04/19 03:42:47;;;;;;;15.87;8.67;;;;;;;;;;5022356;28;20272;-65
2022/04/19 03:45:12;;;;;;;13.17;9.30;;;;;;;;;;5018613;28;20198;-65
2022/04/19 03:47:38;;;;;;;17.27;8.93;;;;;;;;;;5021501;28;20186;-65
2022/04/19 03:50:07;;;;;;;17.47;10.37;;;;;;;;;;5025043;28;20582;-65
2022/04/19 03:52:34;;;;;;;17.47;10.20;;;;;;;;;;5024092;28;20189;-65
2022/04/19 03:54:59;;;;;;;19.97;10.50;;;;;;;;;;5028437;28;20182;-65
2022/04/19 03:57:26;;;;;;;16.10;9.73;;;;;;;;;;5026731;28;20252;-65
2022/04/19 03:59:51;;;;;;;14.57;9.03;;;;;;;;;;5019619;28;20213;-65
2022/04/19 04:02:17;;;;;;;14.43;9.00;;;;;;;;;;5021119;28;20182;-65
2022/04/19 04:04:42;;;;;;;14.37;8.60;;;;;;;;;;5022893;28;20241;-64
2022/04/19 04:07:08;;;;;;;18.97;9.30;;;;;;;;;;5026448;28;20217;-64
2022/04/19 04:09:35;;;;;;;15.50;8.97;;;;;;;;;;5018038;28;20190;-65
2022/04/19 04:12:02;;;;;;;18.47;10.70;;;;;;;;;;5027944;28;20315;-65
2022/04/19 04:14:31;;;;;;;21.60;11.10;;;;;;;;;;5026848;28;20186;-64
2022/04/19 04:16:56;;;;;;;21.13;11.27;;;;;;;;;;5018587;28;20266;-64
2022/04/19 04:19:22;;;;;;;22.70;11.73;;;;;;;;;;5024598;28;20297;-65
2022/04/19 04:21:47;;;;;;;20.73;11.70;;;;;;;;;;5028057;28;20269;-65
2022/04/19 04:24:12;;;;;;;23.60;10.97;;;;;;;;;;5025751;28;20215;-65
2022/04/19 04:26:38;;;;;;;23.97;11.80;;;;;;;;;;5021531;28;20201;-65
2022/04/19 04:29:03;;;;;;;21.90;11.83;;;;;;;;;;5017479;28;20205;-65
2022/04/19 04:31:29;;;;;;;21.20;11.80;;;;;;;;;;5022244;28;20206;-65
2022/04/19 04:33:54;;;;;;;20.37;11.70;;;;;;;;;;5023367;28;20709;-65
2022/04/19 04:36:19;;;;;;;20.33;11.73;;;;;;;;;;5027005;28;20197;-65
2022/04/19 04:38:45;;;;;;;19.50;11.00;;;;;;;;;;5018491;28;20199;-65
2022/04/19 04:41:11;;;;;;;21.63;11.37;;;;;;;;;;5024921;28;20718;-65
2022/04/19 04:43:37;;;;;;;23.30;12.50;;;;;;;;;;5025692;28;20198;-65
2022/04/19 04:51:30;;;;;;;29.53;13.67;;;;;;;;;;5021024;28;20322;-64
2022/04/19 04:53:56;;;;;;;29.70;13.50;;;;;;;;;;5025427;28;20549;-65
2022/04/19 04:56:23;;;;;;;30.73;15.03;;;;;;;;;;5024634;28;20646;-64
2022/04/19 04:58:49;;;;;;;24.53;13.77;;;;;;;;;;5023645;28;20285;-64
2022/04/19 05:01:14;;;;;;;29.00;14.90;;;;;;;;;;5020002;28;20277;-65
2022/04/19 05:03:39;;;;;;;26.57;14.30;;;;;;;;;;5023907;28;20282;-65
2022/04/19 05:06:05;;;;;;;27.13;13.70;;;;;;;;;;5024476;28;20669;-65
2022/04/19 05:08:30;;;;;;;25.77;13.30;;;;;;;;;;5019885;28;20185;-64
2022/04/19 05:10:56;;;;;;;32.80;15.27;;;;;;;;;;5023172;28;20265;-65
2022/04/19 05:13:21;;;;;;;35.67;16.10;;;;;;;;;;5023868;28;20657;-65
2022/04/19 05:15:46;;;;;;;29.40;16.27;;;;;;;;;;5019922;28;20562;-65
2022/04/19 05:18:14;;;;;;;28.87;14.87;;;;;;;;;;5023523;28;20195;-65
2022/04/19 05:20:40;;;;;;;29.93;15.03;;;;;;;;;;5019800;28;20196;-64
2022/04/19 05:23:06;;;;;;;35.73;16.13;;;;;;;;;;5018435;28;20214;-65
2022/04/19 05:25:31;;;;;;;26.93;15.13;;;;;;;;;;5019724;28;20244;-65
2022/04/19 05:27:56;;;;;;;27.80;15.40;;;;;;;;;;5024324;28;20177;-65
2022/04/19 05:30:22;;;;;;;30.83;15.10;;;;;;;;;;5021935;28;20198;-65
2022/04/19 05:32:47;;;;;;;30.90;14.73;;;;;;;;;;5020703;28;20571;-64
2022/04/19 05:35:12;;;;;;;32.70;15.50;;;;;;;;;;5021629;28;20490;-65
2022/04/19 05:37:38;;;;;;;26.73;14.07;;;;;;;;;;5023783;28;20197;-65
2022/04/19 05:40:04;;;;;;;26.83;13.53;;;;;;;;;;5023923;28;20683;-64
2022/04/19 05:42:30;;;;;;;22.73;13.10;;;;;;;;;;5026394;28;20264;-64
2022/04/19 05:44:55;;;;;;;24.57;13.27;;;;;;;;;;5024722;28;20569;-66
2022/04/19 05:47:21;;;;;;;26.27;12.73;;;;;;;;;;5023399;28;20218;-65
2022/04/19 05:49:46;;;;;;;23.93;12.60;;;;;;;;;;5019826;28;20597;-64
2022/04/19 05:52:11;;;;;;;22.97;11.90;;;;;;;;;;5015690;28;20269;-64
2022/04/19 05:54:37;;;;;;;21.57;12.40;;;;;;;;;;5020419;28;20642;-64
2022/04/19 05:57:02;;;;;;;19.47;11.07;;;;;;;;;;5026500;28;20562;-64
2022/04/19 05:59:27;;;;;;;23.73;10.50;;;;;;;;;;5024002;28;20186;-64
2022/04/19 06:04:52;;;;;;;22.30;10.20;;;;;;;;;;5017455;28;20202;-64
2022/04/19 06:07:21;;;;;;;20.77;11.07;;;;;;;;;;5023239;28;20216;-65
2022/04/19 06:09:46;;;;;;;19.63;10.23;;;;;;;;;;5025220;28;20607;-65
2022/04/19 06:12:12;;;;;;;20.20;10.80;;;;;;;;;;5023267;28;20226;-65
2022/04/19 06:14:37;;;;;;;19.23;10.53;;;;;;;;;;5025124;28;20269;-65
2022/04/19 06:17:03;;;;;;;17.83;9.30;;;;;;;;;;5023155;28;20595;-65
2022/04/19 06:19:28;;;;;;;18.00;10.30;;;;;;;;;;5020428;28;20182;-65
2022/04/19 06:21:55;;;;;;;16.47;9.77;;;;;;;;;;5024246;28;20702;-65
2022/04/19 06:24:20;;;;;;;16.17;9.20;;;;;;;;;;5024380;28;20190;-65
2022/04/19 06:26:46;;;;;;;18.73;9.40;;;;;;;;;;5022943;28;20206;-65
2022/04/19 06:29:11;;;;;;;16.33;9.43;;;;;;;;;;5023408;28;20198;-65
2022/04/19 06:31:36;;;;;;;14.87;8.57;;;;;;;;;;5022646;28;20213;-65
2022/04/19 06:34:02;;;;;;;15.33;8.93;;;;;;;;;;5021918;28;20179;-65
2022/04/19 06:36:27;;;;;;;14.80;8.67;;;;;;;;;;5021368;28;20656;-65
2022/04/19 06:38:53;;;;;;;14.10;8.53;;;;;;;;;;5021129;28;20728;-65
2022/04/19 06:41:19;;;;;;;13.65;8.00;;;;;;;;;;5023566;28;20645;-64
2022/04/19 06:43:44;;;;;;;14.23;7.93;;;;;;;;;;5022230;28;20182;-65
2022/04/19 06:46:10;;;;;;;13.10;7.75;;;;;;;;;;5024435;28;20216;-65
2022/04/19 06:48:35;;;;;;;13.27;8.07;;;;;;;;;;5026492;28;20189;-65
2022/04/19 06:51:01;;;;;;;13.73;7.80;;;;;;;;;;5022900;28;20864;-65
2022/04/19 06:53:30;;;;;;;12.70;7.53;;;;;;;;;;5020982;28;20197;-65
2022/04/19 06:55:56;;;;;;;13.18;7.97;;;;;;;;;;5020748;28;20193;-65
2022/04/19 06:58:21;;;;;;;14.75;8.50;;;;;;;;;;5022702;28;20265;-66
2022/04/19 07:00:47;;;;;;;14.80;8.00;;;;;;;;;;5021181;28;20676;-66
2022/04/19 07:03:12;;;;;;;17.70;7.90;;;;;;;;;;5024513;28;20288;-66
2022/04/19 07:05:37;;;;;;;12.23;7.22;;;;;;;;;;5022737;28;20210;-66
2022/04/19 07:08:05;;;;;;;13.93;8.13;;;;;;;;;;5026237;28;20174;-66
2022/04/19 07:10:30;;;;;;;13.75;7.93;;;;;;;;;;5025585;28;20189;-66
2022/04/19 07:12:56;;;;;;;15.70;8.10;;;;;;;;;;5025289;28;20225;-66
2022/04/19 07:15:21;;;;;;;13.70;7.70;;;;;;;;;;5024210;28;20190;-65
2022/04/19 07:17:47;;;;;;;14.15;8.10;;;;;;;;;;5026624;28;20185;-66
2022/04/19 07:28:25;;;;;;;15.30;7.68;;;;;;;;;;5029329;28;20197;-66
2022/04/19 07:30:51;;;;;;;11.13;6.88;;;;;;;;;;5028084;28;20206;-66
2022/04/19 07:33:16;;;;;;;12.55;6.93;;;;;;;;;;5029202;28;20196;-66
2022/04/19 07:35:43;;;;;;;10.32;6.65;;;;;;;;;;5017473;28;20248;-66
2022/04/19 07:38:09;;;;;;;12.10;6.95;;;;;;;;;;5028035;28;20187;-66
2022/04/19 07:40:35;;;;;;;12.48;6.95;;;;;;;;;;5022860;28;20194;-66
2022/04/19 07:43:00;;;;;;;12.00;6.80;;;;;;;;;;5028510;28;20208;-65
2022/04/19 07:45:25;;;;;;;12.13;7.22;;;;;;;;;;5023320;28;20697;-65
2022/04/19 07:47:51;;;;;;;12.05;6.78;;;;;;;;;;5028743;28;20274;-65
2022/04/19 07:50:16;;;;;;;10.88;6.45;;;;;;;;;;5026493;28;20178;-66
2022/04/19 07:52:41;;;;;;;14.40;6.88;;;;;;;;;;5029303;28;20228;-66
2022/04/19 07:55:07;;;;;;;13.20;6.97;;;;;;;;;;5027362;28;20186;-66
2022/04/19 07:57:32;;;;;;;11.35;6.97;;;;;;;;;;5027076;28;20232;-66
2022/04/19 07:59:58;;;;;;;12.77;6.78;;;;;;;;;;5029499;28;20657;-66
2022/04/19 08:02:23;;;;;;;11.15;6.25;;;;;;;;;;5029002;28;20553;-66
2022/04/19 08:04:48;;;;;;;14.30;6.55;;;;;;;;;;5027065;28;20207;-66
2022/04/19 08:07:14;;;;;;;11.77;5.97;;;;;;;;;;5027626;28;20289;-66
2022/04/19 08:09:39;;;;;;;14.35;7.03;;;;;;;;;;5025551;28;20486;-66
2022/04/19 08:12:05;;;;;;;13.18;5.70;;;;;;;;;;5023233;28;20280;-66
2022/04/19 08:14:31;;;;;;;11.60;6.55;;;;;;;;;;5027625;28;20317;-66
2022/04/19 08:16:57;;;;;;;11.73;6.32;;;;;;;;;;5028603;28;20209;-66
2022/04/19 08:19:22;;;;;;;12.27;6.40;;;;;;;;;;5028630;28;20251;-66
2022/04/19 08:21:47;;;;;;;12.88;6.25;;;;;;;;;;5027247;28;20591;-66
2022/04/19 08:24:13;;;;;;;13.73;6.95;;;;;;;;;;5028298;28;20178;-66
2022/04/19 08:26:38;;;;;;;11.65;6.40;;;;;;;;;;5027360;28;20206;-65
2022/04/19 08:29:03;;;;;;;10.82;5.95;;;;;;;;;;5029345;28;20178;-66
2022/04/19 08:31:29;;;;;;;10.50;5.80;;;;;;;;;;5019848;28;20232;-66
2022/04/19 08:33:54;;;;;;;10.38;5.82;;;;;;;;;;5029252;28;20185;-66
2022/04/19 08:36:19;;;;;;;10.52;5.88;;;;;;;;;;5024593;28;20464;-65
2022/04/19 08:38:47;;;;;;;12.57;6.50;;;;;;;;;;5028845;28;20227;-65
2022/04/19 08:41:14;;;;;;;9.95;5.82;;;;;;;;;;5026509;28;20652;-65
2022/04/19 08:43:40;;;;;;;9.48;4.82;;;;;;;;;;5027574;28;20181;-65
2022/04/19 08:46:07;;;;;;;9.85;5.20;;;;;;;;;;5025308;28;20206;-66
2022/04/19 08:48:35;;;;;;;9.90;4.82;;;;;;;;;;5026345;28;20205;-66
2022/04/19 08:51:02;;;;;;;8.27;4.40;;;;;;;;;;5028499;28;20190;-65
2022/04/19 08:59:09;;;;;;;9.35;5.00;;;;;;;;;;5026561;28;20201;-65
2022/04/19 09:01:38;;;;;;;9.52;4.97;;;;;;;;;;5019012;28;20182;-65
2022/04/19 09:04:04;;;;;;;11.57;5.65;;;;;;;;;;5026527;28;20222;-66
2022/04/19 09:07:06;;;;;;;8.25;4.95;;;;;;;;;;5016720;28;20211;-65
2022/04/19 09:09:34;;;;;;;8.13;4.57;;;;;;;;;;4982529;28;20187;-65
2022/04/19 09:12:07;;;;;;;7.97;4.70;;;;;;;;;;5013345;28;20230;-65
2022/04/19 09:14:32;;;;;;;7.05;4.30;;;;;;;;;;5021567;28;20324;-65
2022/04/19 09:17:08;;;;;;;10.85;5.10;;;;;;;;;;5025677;28;20677;-65
2022/04/19 09:19:33;;;;;;;6.80;4.32;;;;;;;;;;5023194;28;20288;-65
2022/04/19 09:21:59;;;;;;;6.93;4.10;;;;;;;;;;5025411;28;20270;-66
2022/04/19 09:24:25;;;;;;;6.30;4.43;;;;;;;;;;5025607;28;20225;-65
2022/04/19 09:26:51;;;;;;;6.53;4.15;;;;;;;;;;5025971;28;20205;-66
2022/04/19 09:29:27;;;;;;;7.03;4.43;;;;;;;;;;5026226;28;20492;-66
2022/04/19 09:32:01;;;;;;;9.45;4.43;;;;;;;;;;5024513;28;20605;-66
2022/04/19 09:34:29;;;;;;;9.07;4.25;;;;;;;;;;5024837;28;20617;-65
2022/04/19 09:37:10;;;;;;;7.10;4.72;;;;;;;;;;5026093;28;20216;-65
2022/04/19 09:39:37;;;;;;;6.85;4.53;;;;;;;;;;5026497;28;20186;-66
2022/04/19 09:42:04;;;;;;;10.23;4.70;;;;;;;;;;5027092;28;20181;-65
2022/04/19 09:44:35;;;;;;;9.55;4.47;;;;;;;;;;5014740;28;20209;-65
2022/04/19 09:47:08;;;;;;;6.53;4.00;;;;;;;;;;5022291;28;20205;-66
2022/04/19 09:49:44;;;;;;;6.13;4.03;;;;;;;;;;5016212;28;20194;-66
2022/04/19 09:52:13;;;;;;;7.60;4.68;;;;;;;;;;5034578;28;20192;-66
2022/04/19 09:54:40;;;;;;;7.00;4.38;;;;;;;;;;5025052;28;20197;-66
2022/04/19 09:57:09;;;;;;;9.32;4.90;;;;;;;;;;5027131;28;20403;-65
2022/04/19 09:59:42;;;;;;;7.05;3.72;;;;;;;;;;5021505;28;20182;-66
2022/04/19 10:10:24;;;;;;;4.88;3.92;;;;;;;;;;5021282;28;20189;-64
2022/04/19 10:12:51;;;;;;;7.10;3.83;;;;;;;;;;5025579;28;20660;-64
2022/04/19 10:15:16;;;;;;;4.57;3.28;;;;;;;;;;5025531;28;20213;-64
2022/04/19 10:17:42;;;;;;;7.82;3.83;;;;;;;;;;5026354;28;20534;-65
2022/04/19 10:20:08;;;;;;;4.07;3.15;;;;;;;;;;5024212;28;20182;-65
2022/04/19 10:22:33;;;;;;;5.57;3.22;;;;;;;;;;5025029;28;20265;-64
2022/04/19 10:25:01;;;;;;;5.05;2.90;;;;;;;;;;5025443;28;20265;-64
2022/04/19 10:27:32;;;;;;;4.28;2.80;;;;;;;;;;5022989;28;20216;-64
2022/04/19 10:29:58;;;;;;;4.85;3.20;;;;;;;;;;5025566;28;20255;-65
2022/04/19 10:32:33;;;;;;;4.72;2.97;;;;;;;;;;5024639;28;20206;-65
2022/04/19 10:35:04;;;;;;;4.45;2.60;;;;;;;;;;5019957;28;20195;-66
2022/04/19 10:37:29;;;;;;;4.90;2.60;;;;;;;;;;5021875;28;20178;-65
2022/04/19 10:39:57;;;;;;;3.67;2.75;;;;;;;;;;5025367;28;20561;-65
2022/04/19 10:42:40;;;;;;;6.03;2.92;;;;;;;;;;5024350;28;20194;-64
2022/04/19 10:45:11;;;;;;;7.15;3.20;;;;;;;;;;5016811;28;20502;-65
2022/04/19 10:47:57;;;;;;;4.95;3.05;;;;;;;;;;5020734;28;20217;-65
2022/04/19 10:50:39;;;;;;;5.80;2.40;;;;;;;;;;5026117;28;20201;-64
2022/04/19 10:53:12;;;;;;;6.05;3.20;;;;;;;;;;5027044;28;20218;-64
2022/04/19 10:55:40;;;;;;;4.22;2.83;;;;;;;;;;5031446;28;20170;-66
2022/04/19 10:58:20;;;;;;;4.47;2.90;;;;;;;;;;5030290;28;20174;-65
2022/04/19 11:00:53;;;;;;;4.50;3.10;;;;;;;;;;5026325;28;20200;-65
2022/04/19 11:03:39;;;;;;;8.15;3.28;;;;;;;;;;5029202;28;20256;-65
2022/04/19 11:06:09;;;;;;;5.20;3.15;;;;;;;;;;5022006;28;20209;-65
2022/04/19 11:08:36;;;;;;;5.32;3.00;;;;;;;;;;5031680;28;20197;-65
2022/04/19 11:11:02;;;;;;;3.78;3.10;;;;;;;;;;5028764;28;20209;-64
2022/04/19 11:13:38;;;;;;;4.85;3.20;;;;;;;;;;5030044;28;20717;-64
2022/04/19 11:16:08;;;;;;;4.82;3.10;;;;;;;;;;5029098;28;20189;-64
2022/04/19 11:18:53;;;;;;;5.55;3.13;;;;;;;;;;5030737;28;20174;-67
2022/04/19 11:21:51;;;;;;;4.93;3.20;;;;;;;;;;5028944;28;20185;-65
2022/04/19 11:24:54;;;;;;;4.72;3.25;;;;;;;;;;5030123;28;20194;-65
2022/04/19 11:27:19;;;;;;;4.38;3.03;;;;;;;;;;5025269;28;20296;-65
2022/04/19 11:29:49;;;;;;;3.53;2.47;;;;;;;;;;5028540;28;20301;-65
2022/04/19 11:32:25;;;;;;;5.25;2.80;;;;;;;;;;5025886;28;20233;-65
2022/04/19 11:35:04;;;;;;;3.25;2.20;;;;;;;;;;5028069;28;20196;-66
2022/04/19 11:37:30;;;;;;;4.05;2.28;;;;;;;;;;5028602;28;20572;-66
2022/04/19 11:48:17;;;;;;;3.90;2.58;;;;;;;;;;5027111;28;20197;-67
2022/04/19 11:50:43;;;;;;;5.43;2.47;;;;;;;;;;5026537;28;20252;-65
2022/04/19 11:53:17;;;;;;;3.30;2.63;;;;;;;;;;5027618;28;20182;-64
2022/04/19 11:55:50;;;;;;;3.38;2.20;;;;;;;;;;5026754;28;20200;-65
2022/04/19 11:58:16;;;;;;;5.07;2.30;;;;;;;;;;5025746;28;20697;-65
2022/04/19 12:00:41;;;;;;;2.60;2.15;;;;;;;;;;5026460;28;20321;-65
2022/04/19 12:03:24;;;;;;;3.38;2.42;;;;;;;;;;5023697;28;20208;-65
2022/04/19 12:05:50;;;;;;;2.83;2.35;;;;;;;;;;5024913;28;20320;-64
2022/04/19 12:08:33;;;;;;;3.05;2.47;;;;;;;;;;5027919;28;20292;-65
2022/04/19 12:11:00;;;;;;;6.22;2.42;;;;;;;;;;5025648;28;20665;-65
2022/04/19 12:13:26;;;;;;;3.63;2.30;;;;;;;;;;5028187;28;20666;-65
2022/04/19 12:15:51;;;;;;;3.65;2.20;;;;;;;;;;5026966;28;20180;-65
2022/04/19 12:18:43;;;;;;;3.00;2.13;;;;;;;;;;5025652;28;20266;-64
2022/04/19 12:21:09;;;;;;;2.65;1.98;;;;;;;;;;5022577;28;20613;-64
2022/04/19 12:23:37;;;;;;;4.30;2.13;;;;;;;;;;5027174;28;20236;-64
2022/04/19 12:26:07;;;;;;;2.67;1.90;;;;;;;;;;5027056;28;20232;-65
2022/04/19 12:28:46;;;;;;;2.75;1.90;;;;;;;;;;5027871;28;20190;-65
2022/04/19 12:31:34;;;;;;;2.72;1.48;;;;;;;;;;5026621;28;20252;-66
2022/04/19 12:34:01;;;;;;;2.83;1.35;;;;;;;;;;5022638;28;20179;-65
2022/04/19 12:36:27;;;;;;;1.95;1.30;;;;;;;;;;5026137;28;20248;-64
2022/04/19 12:39:03;;;;;;;2.78;1.30;;;;;;;;;;5027106;28;20497;-65
2022/04/19 12:41:34;;;;;;;1.35;1.05;;;;;;;;;;5023547;28;20198;-65
2022/04/19 12:44:03;;;;;;;1.80;1.40;;;;;;;;;;5027084;28;20261;-65
2022/04/19 12:46:30;;;;;;;2.58;1.38;;;;;;;;;;5023840;28;20221;-65
2022/04/19 12:48:57;;;;;;;1.92;1.27;;;;;;;;;;5026357;28;20190;-65
2022/04/19 12:51:26;;;;;;;3.92;1.30;;;;;;;;;;5022065;28;20178;-65
2022/04/19 12:54:02;;;;;;;1.63;1.23;;;;;;;;;;5023672;28;20182;-66
2022/04/19 12:56:27;;;;;;;3.80;1.10;;;;;;;;;;5024496;28;20213;-66
2022/04/19 12:58:53;;;;;;;1.77;0.93;;;;;;;;;;5025691;28;20182;-66
2022/04/19 13:01:18;;;;;;;1.17;0.80;;;;;;;;;;5024445;28;20189;-66
2022/04/19 13:03:43;;;;;;;4.63;1.10;;;;;;;;;;5023944;28;20243;-66
2022/04/19 13:14:25;;;;;;;1.63;0.80;;;;;;;;;;5027985;28;20738;-66
2022/04/19 13:16:51;;;;;;;1.60;0.82;;;;;;;;;;5024511;28;20277;-66
2022/04/19 13:19:16;;;;;;;5.03;0.68;;;;;;;;;;5026622;28;20201;-66
2022/04/19 13:21:41;;;;;;;3.10;0.75;;;;;;;;;;5027127;28;20301;-66
2022/04/19 13:24:07;;;;;;;2.10;0.70;;;;;;;;;;5013507;28;20189;-67
2022/04/19 13:26:32;;;;;;;1.10;0.57;;;;;;;;;;5024765;28;20213;-66
2022/04/19 13:28:58;;;;;;;2.33;0.52;;;;;;;;;;5024232;28;20189;-66
2022/04/19 13:31:23;;;;;;;2.60;0.82;;;;;;;;;;5023112;28;20215;-66
2022/04/19 13:33:50;;;;;;;1.30;0.80;;;;;;;;;;5025404;28;20205;-66
2022/04/19 13:36:15;;;;;;;0.98;0.60;;;;;;;;;;5023968;28;20178;-66
2022/04/19 13:38:41;;;;;;;0.98;0.93;;;;;;;;;;5024258;28;20178;-66
2022/04/19 13:41:07;;;;;;;0.88;0.80;;;;;;;;;;5024872;28;20177;-65
2022/04/19 13:43:32;;;;;;;1.92;0.75;;;;;;;;;;5023200;28;20532;-65
2022/04/19 13:45:57;;;;;;;2.15;1.00;;;;;;;;;;5023332;28;20272;-65
2022/04/19 13:48:23;;;;;;;3.20;0.70;;;;;;;;;;5018464;28;20329;-65
2022/04/19 13:50:49;;;;;;;1.05;0.85;;;;;;;;;;5022944;28;20186;-65
2022/04/19 13:53:14;;;;;;;1.52;0.88;;;;;;;;;;5012915;28;20179;-65
2022/04/19 13:55:39;;;;;;;2.05;1.13;;;;;;;;;;5025929;28;20205;-65
2022/04/19 13:58:05;;;;;;;2.10;0.77;;;;;;;;;;5022622;28;20646;-66
2022/04/19 14:00:31;;;;;;;3.90;1.10;;;;;;;;;;5025291;28;20561;-66
2022/04/19 14:02:56;;;;;;;2.63;1.40;;;;;;;;;;5020694;28;20632;-66
2022/04/19 14:05:22;;;;;;;2.05;1.10;;;;;;;;;;5025961;28;20186;-67
2022/04/19 14:07:47;;;;;;;0.93;0.90;;;;;;;;;;5022571;28;20268;-66
2022/04/19 14:10:12;;;;;;;2.80;1.25;;;;;;;;;;5026104;28;20247;-66
2022/04/19 14:12:38;;;;;;;2.35;1.10;;;;;;;;;;5022633;28;20706;-66
2022/04/19 14:15:05;;;;;;;1.98;1.02;;;;;;;;;;5026141;28;20188;-66
2022/04/19 14:17:30;;;;;;;2.20;0.75;;;;;;;;;;5024562;28;20188;-66
2022/04/19 14:19:56;;;;;;;2.05;0.90;;;;;;;;;;5022616;28;20568;-66
2022/04/19 14:22:22;;;;;;;2.65;1.05;;;;;;;;;;5021572;28;20197;-65
2022/04/19 14:24:48;;;;;;;1.45;0.88;;;;;;;;;;5027091;28;20236;-65
2022/04/19 14:27:13;;;;;;;1.95;1.05;;;;;;;;;;5026957;28;20203;-65
2022/04/19 14:35:06;;;;;;;1.95;1.00;;;;;;;;;;5030822;28;20552;-66
2022/04/19 14:37:31;;;;;;;3.72;1.17;;;;;;;;;;5028959;28;20182;-65
2022/04/19 14:40:00;;;;;;;1.63;1.17;;;;;;;;;;5029767;28;20182;-65
2022/04/19 14:42:26;;;;;;;1.20;1.00;;;;;;;;;;5025472;28;20182;-66
2022/04/19 14:44:52;;;;;;;3.72;1.25;;;;;;;;;;5027709;28;20244;-66
2022/04/19 14:47:17;;;;;;;5.25;1.20;;;;;;;;;;5026671;28;20690;-66
2022/04/19 14:49:43;;;;;;;3.60;1.48;;;;;;;;;;5028712;28;20186;-66
2022/04/19 14:52:14;;;;;;;2.65;1.20;;;;;;;;;;5018753;28;20674;-65
2022/04/19 14:54:40;;;;;;;3.25;1.40;;;;;;;;;;5024272;28;20187;-65
2022/04/19 14:57:06;;;;;;;1.50;1.40;;;;;;;;;;5030338;28;20293;-66
2022/04/19 14:59:31;;;;;;;2.60;1.15;;;;;;;;;;5026080;28;20268;-66
2022/04/19 15:01:57;;;;;;;1.55;1.45;;;;;;;;;;5026637;28;20185;-66
2022/04/19 15:04:22;;;;;;;2.28;1.15;;;;;;;;;;5022366;28;20693;-66
2022/04/19 15:06:48;;;;;;;2.70;1.50;;;;;;;;;;5025177;28;20201;-66
2022/04/19 15:09:13;;;;;;;2.03;1.38;;;;;;;;;;5027868;28;20178;-66
2022/04/19 15:11:39;;;;;;;3.08;2.17;;;;;;;;;;5027285;28;20499;-66
2022/04/19 15:14:04;;;;;;;5.32;2.22;;;;;;;;;;5024028;28;20270;-66
2022/04/19 15:16:30;;;;;;;2.05;1.58;;;;;;;;;;5029337;28;20196;-66
2022/04/19 15:18:55;;;;;;;2.58;1.65;;;;;;;;;;5026571;28;20190;-66
2022/04/19 15:21:21;;;;;;;2.72;1.60;;;;;;;;;;5027848;28;20188;-66
2022/04/19 15:23:46;;;;;;;3.50;1.55;;;;;;;;;;5024510;28;20221;-66
2022/04/19 15:26:12;;;;;;;2.58;1.55;;;;;;;;;;5026181;28;20315;-66
2022/04/19 15:28:37;;;;;;;1.58;1.42;;;;;;;;;;5028041;28;20188;-66
2022/04/19 15:31:05;;;;;;;1.60;1.48;;;;;;;;;;5026127;28;20221;-66
2022/04/19 15:33:30;;;;;;;2.60;2.08;;;;;;;;;;5027978;28;20190;-66
2022/04/19 15:35:56;;;;;;;1.90;1.50;;;;;;;;;;5027651;28;20261;-65